Neptune Pioneer — 3EKH6 — position and weather

sailwx.info

Track history (hours):
 
Tides and Currents Weather Stations Pressure Air Temp Water Temp Dewpoint Dewpoint Depression Visibility Wind Speed Wind Dir Waves Ship Positions

Neptune Pioneer

Last reported at 2016-Dec-05 12:04 UTC. Time now 2016-Dec-08 04:13 UTC.
Position N 53°46' E 000°26'.

Length 190 m; draft 8.9 m.

Type: Cargo ship. MMSI: 372723000.

Date/timePositionNaut miles runAvg speedWind from/ knotsBaromVisibWave heightAir tempDewpointWater temp
2016-Dec-05 12:04N 53°46' E 000°26'  
2016-Nov-29 08:24N 53°53' E 000°22'911.2
2016-Nov-29 07:33N 54°03' E 000°22'1212.4
2016-Nov-29 06:33N 54°15' E 000°23'1212.4
2016-Nov-29 05:33N 54°27' E 000°30'38412.7
2016-Nov-27 23:20N 57°49' E 010°17'1012.8
2016-Nov-27 22:33N 57°48' E 010°36'7 7.4
2016-Nov-27 21:33N 57°46' E 010°49'3 3.4
2016-Nov-27 20:33N 57°44' E 010°54'6 6.1
2016-Nov-27 19:33N 57°40' E 011°03'1111.0
2016-Nov-27 18:33N 57°32' E 011°18'1010.0
2016-Nov-27 17:33N 57°24' E 011°29'10 9.9
2016-Nov-27 16:33N 57°15' E 011°35'9 9.5
2016-Nov-27 15:33N 57°06' E 011°41'104 9.3
2016-Nov-27 04:24N 55°25' E 010°59'910.8
2016-Nov-27 03:33N 55°16' E 011°04'1010.3
2016-Nov-27 02:33N 55°06' E 011°03'1110.8
2016-Nov-27 01:33N 54°56' E 010°55'10 9.8
2016-Nov-27 00:33N 54°47' E 010°49'8 8.4
2016-Nov-26 23:33N 54°39' E 010°51'9 8.8
2016-Nov-26 22:33N 54°36' E 011°06'1010.5
2016-Nov-26 21:33N 54°33' E 011°23'1111.2
2016-Nov-26 20:33N 54°28' E 011°40'1110.8
2016-Nov-26 19:33N 54°27' E 011°59'10 9.5
2016-Nov-26 18:33N 54°32' E 012°12'1110.8
2016-Nov-26 17:33N 54°40' E 012°25'1411.4
2016-Nov-26 16:21N 54°47' E 012°45'1011.8
2016-Nov-26 15:28N 54°52' E 013°01'1211.4
2016-Nov-26 14:25N 54°56' E 013°21'1011.0
2016-Nov-26 13:32N 54°59' E 013°37'1111.0
2016-Nov-26 12:34N 55°03' E 013°54'1110.5
2016-Nov-26 11:33N 55°09' E 014°10'1111.4
2016-Nov-26 10:33N 55°17' E 014°22'1211.6
2016-Nov-26 09:34N 55°26' E 014°35'1111.2
2016-Nov-26 08:33N 55°31' E 014°53'1211.5
2016-Nov-26 07:33N 55°36' E 015°12'1111.0
2016-Nov-26 06:33N 55°40' E 015°29'  
Track history (hours):
 
Tides and Currents Weather Stations Pressure Air Temp Water Temp Dewpoint Dewpoint Depression Visibility Wind Speed Wind Dir Waves Ship Positions

Neptune Pioneer

Last reported at 2016-Dec-05 12:04 UTC. Time now 2016-Dec-08 04:13 UTC.
Position N 53°46' E 000°26'.

Length 190 m; draft 8.9 m.

Type: Cargo ship. MMSI: 372723000.

Date/timePositionNaut miles runAvg speedWind from/ knotsBaromVisibWave heightAir tempDewpointWater temp
2016-Dec-05 12:04N 53°46' E 000°26'  
2016-Nov-29 08:24N 53°53' E 000°22'911.2
2016-Nov-29 07:33N 54°03' E 000°22'1212.4
2016-Nov-29 06:33N 54°15' E 000°23'1212.4
2016-Nov-29 05:33N 54°27' E 000°30'38412.7
2016-Nov-27 23:20N 57°49' E 010°17'1012.8
2016-Nov-27 22:33N 57°48' E 010°36'7 7.4
2016-Nov-27 21:33N 57°46' E 010°49'3 3.4
2016-Nov-27 20:33N 57°44' E 010°54'6 6.1
2016-Nov-27 19:33N 57°40' E 011°03'1111.0
2016-Nov-27 18:33N 57°32' E 011°18'1010.0
2016-Nov-27 17:33N 57°24' E 011°29'10 9.9
2016-Nov-27 16:33N 57°15' E 011°35'9 9.5
2016-Nov-27 15:33N 57°06' E 011°41'104 9.3
2016-Nov-27 04:24N 55°25' E 010°59'910.8
2016-Nov-27 03:33N 55°16' E 011°04'1010.3
2016-Nov-27 02:33N 55°06' E 011°03'1110.8
2016-Nov-27 01:33N 54°56' E 010°55'10 9.8
2016-Nov-27 00:33N 54°47' E 010°49'8 8.4
2016-Nov-26 23:33N 54°39' E 010°51'9 8.8
2016-Nov-26 22:33N 54°36' E 011°06'1010.5
2016-Nov-26 21:33N 54°33' E 011°23'1111.2
2016-Nov-26 20:33N 54°28' E 011°40'1110.8
2016-Nov-26 19:33N 54°27' E 011°59'10 9.5
2016-Nov-26 18:33N 54°32' E 012°12'1110.8
2016-Nov-26 17:33N 54°40' E 012°25'1411.4
2016-Nov-26 16:21N 54°47' E 012°45'1011.8
2016-Nov-26 15:28N 54°52' E 013°01'1211.4
2016-Nov-26 14:25N 54°56' E 013°21'1011.0
2016-Nov-26 13:32N 54°59' E 013°37'1111.0
2016-Nov-26 12:34N 55°03' E 013°54'1110.5
2016-Nov-26 11:33N 55°09' E 014°10'1111.4
2016-Nov-26 10:33N 55°17' E 014°22'1211.6
2016-Nov-26 09:34N 55°26' E 014°35'1111.2
2016-Nov-26 08:33N 55°31' E 014°53'1211.5
2016-Nov-26 07:33N 55°36' E 015°12'1111.0
2016-Nov-26 06:33N 55°40' E 015°29'  

Dump ship's entire track history